This is the latest recevied weather packets stored in our database for station/object NO3B-10. If no packets are shown the sender has not sent any weather packets the latest 10 day(s).
| Time | Temp. | Humidity | Pressure | Rain* | Wind** | Luminosity | Snow |
|---|---|---|---|---|---|---|---|
| 1788353625 | 26.67° C | 90% | 1014.7 hPa | 0 mm | - | - | - |
| 1788351827 | 24.44° C | 95% | 1014.9 hPa | 0 mm | - | - | - |
| 1788350925 | 23.89° C | 97% | 1014.9 hPa | 0 mm | - | - | - |
| 1788350025 | 23.89° C | 97% | 1014.9 hPa | 0 mm | - | - | - |
| 1788348684 | 23.89° C | 95% | 1014.8 hPa | 0 mm | - | - | - |
| 1788348228 | 23.89° C | 95% | 1014.8 hPa | 0 mm | - | - | - |
| 1788347328 | 23.89° C | 95% | 1014.8 hPa | 0 mm | - | - | - |
| 1788345527 | 24.44° C | 93% | 1014.6 hPa | 0 mm | - | - | - |
| 1788344627 | 24.44° C | 93% | 1014.5 hPa | 0 mm | - | - | - |
| 1788325925 | 25° C | 93% | 1013.5 hPa | 0 mm | - | - | - |
| 1788325728 | 25° C | 93% | 1013.5 hPa | 0 mm | - | - | - |
| 1788317629 | 26.11° C | 91% | 1013 hPa | 0 mm | - | - | - |
| 1788312230 | 26.67° C | 88% | 1012.5 hPa | 0 mm | - | - | - |
| 1788309529 | 27.78° C | 87% | 1011.6 hPa | 0 mm | - | - | - |
| 1788308629 | 28.33° C | 86% | 1011.4 hPa | 0 mm | - | - | - |
| 1788306829 | 29.44° C | 83% | 1011.5 hPa | 0 mm | - | - | - |
| 1788305929 | 30.56° C | 81% | 1011.5 hPa | 0 mm | - | - | - |
| 1788259130 | 22.22° C | 99% | 1014.3 hPa | 0 mm | - | - | - |
| 1788253731 | 22.22° C | 98% | 1014.3 hPa | 0 mm | - | - | - |
| 1788252831 | 22.22° C | 98% | 1014.3 hPa | 0 mm | - | - | - |
| 1788251032 | 22.22° C | 98% | 1014.4 hPa | 0 mm | - | - | - |
| 1788250133 | 22.78° C | 98% | 1014.4 hPa | 0 mm | - | - | - |
| 1788249233 | 22.78° C | 98% | 1014.5 hPa | 0 mm | - | - | - |
| 1788246531 | 22.78° C | 98% | 1014.6 hPa | 0 mm | - | - | - |
| 1788242931 | 22.78° C | 97% | 1015.2 hPa | 0 mm | - | - | - |
* Rain latest hour (hover to see other rain measurements)
** Current wind speed in m/s (hover to see current wind gust speed)